TimeEDT,TemperatureF,Dew PointF,Humidity,Sea Level PressureIn,VisibilityMPH,Wind Direction,Wind SpeedMPH,Gust SpeedMPH,PrecipitationIn,Events,Conditions,WindDirDegrees,DateUTC
12:51 AM,69.1,64.0,84,29.95,8.0,NE,4.6,-,N/A,,Scattered Clouds,50,2013-07-22 04:51:00
1:51 AM,68.0,63.0,84,29.94,8.0,NE,4.6,-,N/A,,Scattered Clouds,50,2013-07-22 05:51:00
2:51 AM,69.1,62.1,78,29.92,9.0,East,5.8,-,N/A,,Scattered Clouds,80,2013-07-22 06:51:00
3:51 AM,66.9,62.1,84,29.91,8.0,NE,4.6,-,N/A,,Scattered Clouds,50,2013-07-22 07:51:00
4:51 AM,66.9,63.0,87,29.91,8.0,Calm,Calm,-,N/A,,Scattered Clouds,0,2013-07-22 08:51:00
5:51 AM,68.0,63.0,84,29.90,8.0,ENE,4.6,-,N/A,,Scattered Clouds,60,2013-07-22 09:51:00
6:51 AM,68.0,63.0,84,29.91,6.0,ENE,3.5,-,N/A,,Haze,70,2013-07-22 10:51:00
7:51 AM,69.1,64.0,84,29.90,6.0,East,5.8,-,N/A,,Haze,80,2013-07-22 11:51:00
8:51 AM,71.1,64.9,81,29.90,6.0,ESE,4.6,-,N/A,,Haze,110,2013-07-22 12:51:00
9:51 AM,72.0,66.9,84,29.90,5.0,SE,4.6,-,N/A,,Haze,140,2013-07-22 13:51:00
10:51 AM,73.9,68.0,82,29.90,5.0,SSE,3.5,-,N/A,,Haze,150,2013-07-22 14:51:00
11:51 AM,73.9,69.1,85,29.89,4.0,ESE,3.5,-,0.01,Rain,Light Rain,110,2013-07-22 15:51:00
12:51 PM,75.0,70.0,84,29.88,4.0,ESE,5.8,-,0.01,Rain,Light Rain,110,2013-07-22 16:51:00
1:51 PM,73.9,70.0,87,29.87,3.0,SE,6.9,-,0.03,Rain,Light Rain,140,2013-07-22 17:51:00
2:51 PM,73.9,70.0,87,29.83,3.0,East,4.6,-,0.08,Rain,Light Rain,90,2013-07-22 18:51:00
3:24 PM,75.2,66.2,73,29.85,3.0,SE,6.9,-,0.02,Rain,Light Rain,130,2013-07-22 19:24:00
3:51 PM,73.9,66.0,76,29.83,3.0,SSE,11.5,-,0.02,Rain,Light Rain,160,2013-07-22 19:51:00
4:51 PM,69.1,64.0,84,29.81,3.0,ENE,5.8,-,0.04,Rain,Light Rain,70,2013-07-22 20:51:00
5:51 PM,69.1,64.9,87,29.81,5.0,NE,8.1,-,0.00,Rain,Light Rain,50,2013-07-22 21:51:00
6:25 PM,68.0,64.4,88,29.81,3.0,NE,8.1,-,0.01,Rain,Light Rain,50,2013-07-22 22:25:00
6:51 PM,68.0,64.0,87,29.79,5.0,NE,9.2,-,0.01,Rain,Light Rain,40,2013-07-22 22:51:00
7:51 PM,66.9,64.0,90,29.79,5.0,NNE,9.2,-,0.00,Rain,Light Rain,20,2013-07-22 23:51:00
8:51 PM,66.9,64.0,90,29.78,5.0,NE,4.6,-,0.00,Rain,Light Rain,40,2013-07-23 00:51:00
9:51 PM,66.0,64.0,93,29.78,6.0,NE,3.5,-,0.00,,Overcast,50,2013-07-23 01:51:00
10:51 PM,66.9,64.0,90,29.78,6.0,NNW,3.5,-,N/A,,Overcast,340,2013-07-23 02:51:00
11:00 PM,66.2,64.4,94,29.81,5.0,NW,5.8,-,N/A,,Overcast,320,2013-07-23 03:00:00
11:48 PM,66.2,64.4,94,29.82,2.5,NW,4.6,-,0.00,Rain,Light Rain,320,2013-07-23 03:48:00
11:51 PM,66.9,64.9,93,29.80,2.5,NW,4.6,-,0.00,Rain,Light Rain,320,2013-07-23 03:51:00